• Join FlightAware (Why Join?)
  • Login
  • US Flag 
06:33AM EDT


 

Airport Tracker/Info


-or-


 

Live Flight TrackerFlight Track Log ✈ SKW6330 ✈ 30-Apr-2013 ✈ KMSN - KDEN

Flight Track Log - Related Links

Times and Time Zones

All times are in EDT time to prevent confusion due to time zone crossing. See the SKW6330 flight status page for this flight to view local times or setup timezone preferences in your user account.

Time Position Orientation Groundspeed Altitude Reporting Facility
EDT Latitude Longitude Course Direction KTS MPH feet Rate Location/Type
09:40AM 43.0944 -89.3689 270° West 152 175 2,600  Level Chicago Center
09:41AM 43.0956 -89.4419 271° West 184 212 5,500 2,280 Climbing Chicago Center
09:42AM 43.0942 -89.5325 269° West 232 267 7,400 2,040 Climbing Chicago Center
09:44AM 43.0953 -89.6233 271° West 240 276 9,800 2,400 Climbing Chicago Center
09:45AM 43.0967 -89.7350 271° West 250 288 12,400 2,220 Climbing Chicago Center
09:46AM 43.1333 -90.1618 270° West  Level FlightAware Approximate
09:46AM 43.0981 -89.8347 271° West 260 299 14,400  Level Chicago Center
09:47AM 43.1000 -89.9297 272° West 267 307 15,900 1,500 Climbing Chicago Center
09:48AM 43.1389 -90.0372 296° West 289 333 17,600 1,740 Climbing Chicago Center
09:49AM 43.1719 -90.1433 293° West 301 346 19,500 1,500 Climbing Chicago Center
09:50AM 43.1944 -90.2536 286° West 304 350 20,800 1,320 Climbing Chicago Center
09:51AM 43.2111 -90.3786 280° West 307 353 22,300 1,200 Climbing Chicago Center
09:52AM 43.2272 -90.4958 281° West 314 361 23,400 960 Climbing Chicago Center
09:53AM 43.2428 -90.6164 280° West 324 373 24,400 900 Climbing Chicago Center
09:54AM 43.2325 -90.7397 264° West 329 379 25,200 840 Climbing Minneapolis Center
09:55AM 43.2244 -90.8664 265° West 335 386 26,100 840 Climbing Minneapolis Center
09:56AM 43.2172 -90.9942 266° West 339 390 27,000 840 Climbing Minneapolis Center
09:57AM 43.2094 -91.1250 265° West 346 398 27,900 780 Climbing Minneapolis Center
09:58AM 43.2003 -91.2564 265° West 350 403 28,700 900 Climbing Minneapolis Center
09:59AM 43.1917 -91.4158 266° West 354 407 29,800 840 Climbing Minneapolis Center
10:00AM 43.1811 -91.5483 264° West 355 409 30,500 660 Climbing Minneapolis Center
10:01AM 43.1725 -91.6797 265° West 353 406 31,200 660 Climbing Minneapolis Center
10:02AM 43.1633 -91.8117 265° West 355 409 31,900 360 Climbing Minneapolis Center
10:03AM 43.1531 -91.9431 264° West 354 407 32,000  Climbing Minneapolis Center
10:04AM 43.1417 -92.1069 265° West 363 418 32,000  Level Minneapolis Center
10:05AM 43.1317 -92.2489 265° West 376 433 32,000  Level Minneapolis Center
10:06AM 43.1206 -92.3942 264° West 388 447 32,000  Level Minneapolis Center
10:07AM 43.1089 -92.5439 264° West 397 457 32,000  Level Minneapolis Center
10:08AM 43.0981 -92.6886 264° West 391 450 32,000  Level Minneapolis Center
10:09AM 43.0869 -92.8322 264° West 386 444 32,000  Level Minneapolis Center
10:10AM 43.0758 -92.9750 264° West 383 441 32,000  Level Minneapolis Center
10:11AM 43.0622 -93.1461 264° West 382 440 32,000  Level Minneapolis Center
10:12AM 43.0486 -93.2881 263° West 380 437 32,000  Level Minneapolis Center
10:13AM 43.0378 -93.4311 264° West 382 440 32,000  Level Minneapolis Center
10:14AM 43.0247 -93.5739 263° West 382 440 32,000  Level Minneapolis Center
10:15AM 43.0142 -93.7156 264° West 378 435 32,000  Level Minneapolis Center
10:16AM 43.0025 -93.8586 264° West 381 438 32,000  Level Minneapolis Center
10:17AM 42.9903 -94.0019 263° West 382 440 32,000  Level Minneapolis Center
10:18AM 42.9736 -94.1731 262° West 383 441 32,000  Level Minneapolis Center
10:19AM 42.9608 -94.3164 263° West 382 440 32,000  Level Minneapolis Center
10:20AM 42.9458 -94.4578 262° West 382 440 32,000  Level Minneapolis Center
10:21AM 42.9364 -94.5992 265° West 380 437 32,000  Level Minneapolis Center
10:22AM 42.9203 -94.7406 261° West 373 429 32,000  Level Minneapolis Center
10:23AM 42.9069 -94.8828 263° West 377 434 32,000  Level Minneapolis Center
10:24AM 42.8931 -95.0258 262° West 379 436 32,000  Level Minneapolis Center
10:25AM 42.8764 -95.1947 262° West 377 434 32,000  Level Minneapolis Center
10:26AM 42.8617 -95.3361 262° West 377 434 32,000  Level Minneapolis Center
10:27AM 42.8469 -95.4775 262° West 378 435 32,000  Level Minneapolis Center
10:28AM 42.8325 -95.6189 262° West 377 434 32,000  Level Minneapolis Center
10:30AM 42.8178 -95.7597 262° West 377 434 32,000  Level Minneapolis Center
10:31AM 42.8036 -95.9019 262° West 378 435 32,000  Level Minneapolis Center
10:32AM 42.7883 -96.0431 262° West 377 434 32,000  Level Minneapolis Center
10:33AM 42.7731 -96.1836 262° West 375 432 32,000  Level Minneapolis Center
10:34AM 42.7575 -96.3242 261° West 375 432 32,000  Level Minneapolis Center
10:35AM 42.7389 -96.4914 261° West 372 428 32,000  Level Minneapolis Center
10:36AM 42.7228 -96.6300 261° West 372 428 32,000  Level Minneapolis Center
10:37AM 42.7067 -96.7700 261° West 374 430 32,000  Level Minneapolis Center
10:38AM 42.6908 -96.9097 261° West 373 429 32,000  Level Minneapolis Center
10:39AM 42.6750 -97.0428 261° West 374 430 32,000  Level Minneapolis Center
10:40AM 42.6592 -97.1819 261° West 373 429 32,000  Level Minneapolis Center
10:41AM 42.6431 -97.3189 261° West 370 426 32,000  Level Minneapolis Center
10:42AM 42.6225 -97.4869 261° West 375 432 32,000  Level Minneapolis Center
10:43AM 42.6058 -97.6225 261° West 368 423 32,000  Level Minneapolis Center
10:44AM 42.5897 -97.7586 261° West 367 422 32,000  Level Minneapolis Center
10:45AM 42.5708 -97.9081 260° West 369 425 32,000  Level Minneapolis Center
10:46AM 42.5533 -98.0442 260° West 368 423 32,000  Level Minneapolis Center
10:47AM 42.5367 -98.1803 261° West 367 422 32,000  Level Minneapolis Center
10:48AM 42.5197 -98.3167 260° West 367 422 32,000  Level Minneapolis Center
10:49AM 42.5011 -98.4522 259° West 367 422 32,000  Level Minneapolis Center
10:50AM 42.4831 -98.5894 260° West 370 426 32,000  Level Minneapolis Center
10:51AM 42.4542 -98.7219 254° West 370 426 32,000  Level Minneapolis Center
10:52AM 42.4008 -98.8403 239° Southwest 370 426 32,000  Level Minneapolis Center
10:53AM 42.3369 -98.9831 239° Southwest 371 427 32,000  Level Minneapolis Center
10:55AM 42.2281 -99.0684 239° Southwest  Level FlightAware Approximate
11:02AM 41.9080 -99.8902 243° Southwest  Level FlightAware Approximate
11:03AM 41.8627 -100.0076 243° Southwest  Level FlightAware Approximate
11:04AM 41.8167 -100.1244 241° Southwest  Level FlightAware Approximate
11:05AM 41.7695 -100.2403 241° Southwest  Level FlightAware Approximate
11:06AM 41.7223 -100.3560 241° Southwest  Level FlightAware Approximate
11:07AM 41.6749 -100.4716 241° Southwest  Level FlightAware Approximate
11:08AM 41.6274 -100.5870 241° Southwest  Level FlightAware Approximate
11:09AM 41.5798 -100.7023 241° Southwest  Level FlightAware Approximate
11:10AM 41.5320 -100.8174 241° Southwest  Level FlightAware Approximate
11:11AM 41.4842 -100.9323 241° Southwest  Level FlightAware Approximate
11:12AM 41.4362 -101.0470 241° Southwest  Level FlightAware Approximate
11:13AM 41.3902 -101.1629 246° West  Level FlightAware Approximate
11:14AM 41.3502 -101.2828 246° West  Level FlightAware Approximate
11:15AM 41.3129 -101.4042 248° West  Level FlightAware Approximate
11:16AM 41.2750 -101.5251 246° West  Level FlightAware Approximate
11:17AM 41.2352 -101.6449 246° West  Level FlightAware Approximate
11:18AM 41.1953 -101.7645 246° West  Level FlightAware Approximate
11:19AM 41.1566 -101.8848 249° West  Level FlightAware Approximate
11:20AM 41.1212 -102.0067 249° West  Level FlightAware Approximate
11:21AM 41.0856 -102.1286 249° West  Level FlightAware Approximate
11:22AM 41.0499 -102.2503 248° West  Level FlightAware Approximate
11:23AM 41.0135 -102.3715 248° West  Level FlightAware Approximate
11:24AM 40.9769 -102.4927 248° West  Level FlightAware Approximate
11:25AM 40.9402 -102.6136 248° West  Level FlightAware Approximate
11:26AM 40.9034 -102.7345 248° West  Level FlightAware Approximate
11:27AM 40.8623 -102.8526 242° Southwest  Level FlightAware Approximate
11:28AM 40.8209 -102.9706 246° West  Level FlightAware Approximate
11:29AM 40.7856 -103.0920 249° West  Level FlightAware Approximate
11:30AM 40.7466 -103.2069 237° Southwest  Level FlightAware Approximate
11:31AM 40.7011 -103.3212 249° West  Level FlightAware Approximate
11:32AM 40.6721 -103.4429 241° Southwest  Level FlightAware Approximate
11:33AM 40.6272 -103.5579 252° West  Level FlightAware Approximate
11:34AM 40.5908 -103.6759 217° Southwest  Level FlightAware Approximate
11:35AM 40.5160 -103.7593 229° Southwest  Level FlightAware Approximate
11:36AM 40.4501 -103.8554 225° Southwest  Level FlightAware Approximate
11:37AM 40.3832 -103.9502 229° Southwest  Level FlightAware Approximate
11:38AM 40.3500 -104.0630 270° West  Level FlightAware Approximate
11:39AM 40.3500 -104.1922 270° West  Level FlightAware Approximate
11:40AM 40.3500 -104.3214 270° West  Level FlightAware Approximate
11:41AM 40.3499 -104.4506 258° West  Level FlightAware Approximate
11:42AM 40.3128 -104.5551 191° South  Level FlightAware Approximate
11:43AM 40.2160 -104.5784 190° South  Level FlightAware Approximate
11:44AM 40.1190 -104.6008 190° South  Level FlightAware Approximate
11:45AM 40.0221 -104.6236 191° South  Level FlightAware Approximate
11:46AM 39.9254 -104.6478 191° South  Level FlightAware Approximate
11:47AM 39.8617 -104.6732 201° Southwest  Level Estimated
11:48AM 39.8617 -104.6732 201° Southwest  Level Estimated
11:49AM 39.8617 -104.6732 201° Southwest  Level Estimated
11:50AM 39.8617 -104.6732 201° Southwest  Level Estimated
11:51AM 39.8617 -104.6732 201° Southwest  Level Estimated
11:52AM 39.8617 -104.6732 201° Southwest  Level Estimated
11:53AM 39.8617 -104.6732 201° Southwest  Level Estimated
11:54AM 39.8617 -104.6732 201° Southwest  Level Estimated
11:55AM 39.8617 -104.6732 201° Southwest  Level Estimated
11:56AM 39.8617 -104.6732 201° Southwest  Level Estimated
11:57AM 39.8617 -104.6732 201° Southwest  Level Estimated
11:58AM 39.8617 -104.6732 201° Southwest  Level Estimated
11:59AM 39.8617 -104.6732 201° Southwest  Level Estimated
12:00PM 39.8617 -104.6732 201° Southwest  Level Estimated
12:01PM 39.8617 -104.6732 201° Southwest  Level Estimated